Sunday, December 17, 2017, 4:29 PM EST
Back to Local

KLWM, Lawrence Municipal Airport

Location: North Andover, MA, United States Lat: 42.717
Local Time: 4:29 PM EST (21:29 GMT) Lon: -71.133
Time Zone: US/Eastern Elev: 147 ft

Show me the last for .
Show Decoded

2017-12-17 15:54 METAR KLWM 172054Z 32005KT 10SM CLR M02/M16 A3025 RMK AO2 SLP245 T10221156 53003
                 =
2017-12-17 14:54 METAR KLWM 171954Z 33005KT 10SM CLR M02/M15 A3022 RMK AO2 SLP235 T10171150 =
2017-12-17 13:54 METAR KLWM 171854Z 28010KT 10SM CLR M02/M16 A3022 RMK AO2 SLP235 T10171156 =
2017-12-17 12:54 METAR KLWM 171754Z 30013G19KT 10SM CLR M02/M15 A3024 RMK AO2 SLP242 T10221150
                 11022 21083 58017 =
2017-12-17 11:54 METAR KLWM 171654Z 32006KT 10SM CLR M03/M15 A3026 RMK AO2 SLP249 T10331150 =
2017-12-17 10:54 METAR KLWM 171554Z 29008KT 10SM CLR M04/M14 A3028 RMK AO2 SLP255 T10441144 =
2017-12-17 09:54 METAR KLWM 171454Z 29007KT 10SM CLR M06/M14 A3029 RMK AO2 SLP259 T10611144 53007
                 =
2017-12-17 08:54 METAR KLWM 171354Z 28008KT 10SM CLR M07/M14 A3028 RMK AO2 SLP254 T10721144 =
2017-12-17 07:54 METAR KLWM 171254Z 31003KT 10SM CLR M08/M14 A3027 RMK AO2 SLP253 T10831144 =
2017-12-17 06:54 METAR KLWM 171154Z 27003KT 10SM CLR M08/M14 A3027 RMK AO2 SLP252 T10831144 11061
                 21083 51018 =
2017-12-17 05:54 METAR KLWM 171054Z AUTO 27004KT 10SM CLR M08/M14 A3026 RMK AO2 SLP250 T10831144
                 =
2017-12-17 04:54 METAR KLWM 170954Z AUTO 27003KT 10SM CLR M08/M14 A3024 RMK AO2 SLP243 T10781144
                 =
2017-12-17 03:54 METAR KLWM 170854Z AUTO 28003KT 10SM CLR M08/M14 A3022 RMK AO2 SLP235 T10781139
                 50012 =
2017-12-17 02:54 METAR KLWM 170754Z AUTO 28005KT 10SM CLR M07/M14 A3022 RMK AO2 SLP235 T10721139
                 =
2017-12-17 01:54 METAR KLWM 170654Z AUTO 30005KT 10SM CLR M07/M14 A3020 RMK AO2 SLP229 T10671139
                 =
2017-12-17 00:54 METAR KLWM 170554Z AUTO 28004KT 10SM CLR M06/M13 A3018 RMK AO2 SLP223 T10611128
                 11011 21061 51015 =
2017-12-16 23:54 METAR KLWM 170454Z AUTO 28008KT 10SM CLR M05/M12 A3018 RMK AO2 SLP221 T10501117
                 400111067 =
2017-12-16 22:54 METAR KLWM 170354Z AUTO 32004KT 10SM CLR M04/M09 A3016 RMK AO2 SLP214 T10441094
                 =
2017-12-16 21:54 METAR KLWM 170254Z 27004KT 10SM CLR M04/M08 A3014 RMK AO2 SLP208 T10391083 51027
                 =
2017-12-16 20:54 METAR KLWM 170154Z 29005KT 10SM CLR M03/M08 A3012 RMK AO2 SLP201 T10331083 =
2017-12-16 19:54 METAR KLWM 170054Z 29005KT 10SM CLR M03/M08 A3009 RMK AO2 SLP190 T10281078 =
2017-12-16 18:54 METAR KLWM 162354Z 26011KT 10SM BKN070 M01/M08 A3006 RMK AO2 SLP180 T10111083
                 10011 21011 53040 =
2017-12-16 17:54 METAR KLWM 162254Z 27009KT 10SM CLR M01/M09 A3002 RMK AO2 SLP166 T10111094 =
2017-12-16 16:54 METAR KLWM 162154Z 27009KT 10SM CLR M01/M09 A2997 RMK AO2 SLP151 T10061094 =

Support USWX by starting your Amazon purchase here.